Home > Products > Valid Products > TAF

000
FTUS41 KILN 161700
TAFLCK
TAF
KLCK 161740Z 1618/1718 11008KT P6SM BKN250
     FM170000 11008KT P6SM BKN250
     FM170900 14010KT P6SM BKN250
     FM171400 17010KT P6SM BKN250=



000
FTUS41 KILN 161700
TAFCVG
TAF
KCVG 161740Z 1618/1724 10010KT P6SM BKN250
     FM170000 11006KT P6SM BKN250
     FM170900 14007KT P6SM BKN250
     FM171400 19010KT P6SM BKN250=



000
FTUS41 KILN 161700
TAFLUK
TAF
KLUK 161740Z 1618/1718 09010KT P6SM BKN250
     FM170000 11003KT P6SM BKN250
     FM171400 19010KT P6SM BKN250=



000
FTUS41 KILN 161700
TAFDAY
TAF
KDAY 161740Z 1618/1718 11012KT P6SM BKN250
     FM170000 11007KT P6SM BKN250
     FM170900 14010KT P6SM BKN250
     FM171400 19012KT P6SM BKN250=



000
FTUS41 KILN 161700
TAFILN
TAF
KILN 161740Z 1618/1718 11012KT P6SM BKN250
     FM170000 11007KT P6SM BKN250
     FM170900 14010KT P6SM BKN250
     FM171400 18012KT P6SM BKN250=



000
FTUS41 KILN 161700
TAFCMH
TAF
KCMH 161740Z 1618/1718 11008KT P6SM BKN250
     FM170000 11008KT P6SM BKN250
     FM170900 14010KT P6SM BKN250
     FM171400 17010KT P6SM BKN250=



000
FTUS41 KILN 161500 AAA
TAFCVG
TAF AMD
KCVG 161501Z 1615/1718 11010KT P6SM SCT250
     FM170000 13006KT P6SM BKN250
     FM171400 20010KT P6SM SCT250=



000
FTUS41 KILN 161100
TAFLUK
TAF
KLUK 161136Z 1612/1712 00000KT P6SM SCT250
     FM161400 12008KT P6SM SCT250
     FM170000 VRB03KT P6SM BKN250=



000
FTUS41 KILN 161100
TAFILN
TAF
KILN 161136Z 1612/1712 VRB03KT P6SM SCT250
     FM161400 11010KT P6SM SCT250
     FM170000 11006KT P6SM BKN250=



000
FTUS41 KILN 161100
TAFDAY
TAF
KDAY 161136Z 1612/1712 13004KT P6SM SCT250
     FM161400 12012KT P6SM SCT250
     FM170000 12007KT P6SM BKN250=



000
FTUS41 KILN 161100
TAFCMH
TAF
KCMH 161136Z 1612/1712 VRB03KT P6SM SKC
     FM161400 11008KT P6SM SCT250
     FM170000 11006KT P6SM BKN250=



000
FTUS41 KILN 161100
TAFCVG
TAF
KCVG 161136Z 1612/1718 13004KT P6SM SCT250
     FM161400 11010KT P6SM SCT250
     FM170000 13006KT P6SM BKN250
     FM171400 20010KT P6SM SCT250=



000
FTUS41 KILN 161100
TAFLCK
TAF
KLCK 161136Z 1612/1712 VRB03KT P6SM SKC
     FM161400 11008KT P6SM SCT250
     FM170000 11006KT P6SM BKN250=



000
FTUS41 KILN 160800 AAA
TAFCVG
TAF AMD
KCVG 160844Z 1609/1712 VRB03KT P6SM SKC
     FM161400 11010KT P6SM SCT250
     FM170000 13006KT P6SM BKN250=



000
FTUS41 KILN 160500
TAFLUK
TAF
KLUK 160529Z 1606/1706 00000KT P6SM SKC
     FM161400 12008KT P6SM SCT250
     FM170000 VRB03KT P6SM BKN250=



000
FTUS41 KILN 160500
TAFDAY
TAF
KDAY 160529Z 1606/1706 VRB03KT P6SM SKC
     FM161400 12012KT P6SM SCT250
     FM170000 12007KT P6SM BKN250=



000
FTUS41 KILN 160500
TAFCMH
TAF
KCMH 160529Z 1606/1706 VRB03KT P6SM SKC
     FM161400 11008KT P6SM SCT250
     FM170000 11006KT P6SM BKN250=



000
FTUS41 KILN 160500
TAFCVG
TAF
KCVG 160529Z 1606/1712 VRB03KT P6SM SKC
     FM161400 11010KT P6SM SCT250
     FM170000 13006KT P6SM BKN250=



000
FTUS41 KILN 160500
TAFILN
TAF
KILN 160529Z 1606/1706 VRB03KT P6SM SKC
     FM161400 11010KT P6SM SCT250
     FM170000 11006KT P6SM BKN250=



000
FTUS41 KILN 160500
TAFLCK
TAF
KLCK 160529Z 1606/1706 VRB03KT P6SM SKC
     FM161400 11008KT P6SM SCT250
     FM170000 11006KT P6SM BKN250=



000
FTUS41 KILN 152300
TAFCVG
TAF
KCVG 152320Z 1600/1706 32010KT P6SM BKN050
     FM160100 34005KT P6SM FEW050
     FM160400 VRB03KT P6SM SKC
     FM161300 13011KT P6SM SCT250
     FM170000 12007KT P6SM BKN250=



000
FTUS41 KILN 152300
TAFILN
TAF
KILN 152320Z 1600/1624 32011KT P6SM BKN050
     FM160100 33006KT P6SM FEW050
     FM160400 VRB02KT P6SM SKC
     FM161300 13011KT P6SM SCT250=



000
FTUS41 KILN 152300
TAFCMH
TAF
KCMH 152320Z 1600/1624 33012KT P6SM BKN050
     FM160200 34006KT P6SM FEW050
     FM160500 VRB02KT P6SM SKC
     FM161400 13009KT P6SM FEW250=



000
FTUS41 KILN 152300
TAFDAY
TAF
KDAY 152320Z 1600/1624 33010KT P6SM BKN050
     FM160100 33006KT P6SM FEW050
     FM160400 VRB03KT P6SM SKC
     FM161300 14012KT P6SM SCT250=



000
FTUS41 KILN 152300
TAFLUK
TAF
KLUK 152320Z 1600/1624 33010KT P6SM BKN060
     FM160100 33003KT P6SM FEW060
     FM160400 00000KT P6SM SKC
     FM161400 13009KT P6SM SCT250=



000
FTUS41 KILN 152300
TAFLCK
TAF
KLCK 152320Z 1600/1624 33012KT P6SM BKN050
     FM160200 33005KT P6SM FEW050
     FM160400 VRB02KT P6SM SKC
     FM161400 13008KT P6SM FEW250=



000
FTUS41 KILN 152000 AAA
TAFLUK
TAF AMD
KLUK 152059Z 1521/1618 33010KT P6SM BKN050
     FM160100 33003KT P6SM FEW050
     FM160400 00000KT P6SM SKC
     FM161400 13008KT P6SM SCT250=



000
FTUS41 KILN 152000 AAA
TAFCVG
TAF AMD
KCVG 152058Z 1521/1624 33013KT P6SM BKN045
     FM160100 35005KT P6SM FEW050
     FM160400 VRB04KT P6SM SKC
     FM160900 11005KT P6SM FEW250
     FM161400 13010KT P6SM SCT250=



000
FTUS41 KILN 151700 RRA
TAFILN
TAF
KILN 151742Z 1518/1618 33015G22KT P6SM VCSH OVC045
     FM152200 33012KT P6SM BKN045
     FM160100 35006KT P6SM SCT050
     FM160400 VRB04KT P6SM SKC
     FM161000 13005KT P6SM FEW250
     FM161400 15010KT P6SM SCT250=



000
FTUS41 KILN 151700 RRA
TAFCMH
TAF
KCMH 151742Z 1518/1618 33015G22KT P6SM VCSH OVC035
     FM152300 33014KT P6SM BKN040
     FM160200 34010KT P6SM SCT040
     FM160600 36004KT P6SM SKC
     FM160900 00000KT P6SM SKC
     FM161200 14006KT P6SM FEW250=



000
FTUS41 KILN 151700 RRA
TAFDAY
TAF
KDAY 151742Z 1518/1618 33015G22KT P6SM VCSH OVC045
     FM152200 33012KT P6SM BKN045
     FM160100 35006KT P6SM SCT050
     FM160400 VRB04KT P6SM SKC
     FM160900 14005KT P6SM FEW250
     FM161400 15010KT P6SM SCT250=



000
FTUS41 KILN 151700 RRA
TAFLCK
TAF
KLCK 151742Z 1518/1618 33015G22KT P6SM VCSH OVC035
     FM152300 33014KT P6SM BKN040
     FM160200 34010KT P6SM SCT040
     FM160600 36004KT P6SM SKC
     FM160900 00000KT P6SM SKC
     FM161200 14006KT P6SM FEW250=



000
FTUS41 KILN 151700 RRA
TAFLUK
TAF
KLUK 151742Z 1518/1618 33014G22KT P6SM VCSH OVC045
     FM152200 33010KT P6SM BKN045
     FM160100 35004KT P6SM SCT050
     FM160400 00000KT P6SM SKC
     FM161400 13008KT P6SM SCT250=



000
FTUS41 KILN 151700 RRA
TAFCVG
TAF
KCVG 151742Z 1518/1624 33014G22KT P6SM VCSH OVC045
     FM152200 33012KT P6SM BKN045
     FM160100 35006KT P6SM SCT050
     FM160400 VRB04KT P6SM SKC
     FM160900 11005KT P6SM FEW250
     FM161400 13010KT P6SM SCT250=



000
FTUS41 KILN 151600 AAB
TAFLCK
TAF AMD
KLCK 151642Z 1517/1612 32014G22KT P6SM BKN025
     FM151800 32014G22KT P6SM VCSH BKN040
     FM152200 33012KT P6SM BKN040
     FM160100 33010KT P6SM SCT040
     FM160500 36005KT P6SM SKC=



000
FTUS41 KILN 151600 AAA
TAFILN
TAF AMD
KILN 151642Z 1517/1612 33015G24KT P6SM VCSH BKN040
     FM152100 32012G20KT P6SM BKN040
     FM160000 33008KT P6SM SCT040
     FM160300 VRB04KT P6SM SKC=



000
FTUS41 KILN 151600 AAC
TAFCVG
TAF AMD
KCVG 151642Z 1517/1618 33014G22KT P6SM VCSH BKN040
     FM152100 33012KT P6SM BKN040
     FM160000 33008KT P6SM SCT040
     FM160300 VRB03KT P6SM SKC
     FM161400 13008KT P6SM SKC=



000
FTUS41 KILN 151600 AAB
TAFCMH
TAF AMD
KCMH 151642Z 1517/1612 33014G22KT P6SM BKN025
     FM151800 33014G22KT P6SM VCSH BKN040
     FM152200 33012KT P6SM BKN040
     FM160100 33010KT P6SM SCT040
     FM160500 36005KT P6SM SKC=



000
FTUS41 KILN 151600 AAB
TAFLUK
TAF AMD
KLUK 151642Z 1517/1612 34014G22KT P6SM VCSH BKN040
     FM152100 34012KT P6SM BKN040
     FM160000 33006KT P6SM SCT040
     FM160300 00000KT P6SM SKC=



000
FTUS41 KILN 151600 AAB
TAFDAY
TAF AMD
KDAY 151605Z 1516/1612 34015G24KT P6SM -SHSN SCT025 OVC040
     FM152100 34012G20KT P6SM BKN040
     FM160000 33008KT P6SM SCT040
     FM160300 33004KT P6SM SKC=



000
FTUS41 KILN 151400 AAB
TAFCVG
TAF AMD
KCVG 151457Z 1515/1618 33014G20KT P6SM BKN025
     FM151800 32012G20KT P6SM BKN040
     FM160000 VRB03KT P6SM SKC
     FM161400 13008KT P6SM SKC=



000
FTUS41 KILN 151300 AAA
TAFDAY
TAF AMD
KDAY 151341Z 1514/1612 32015G22KT P6SM BKN025
     FM151800 32012G20KT P6SM BKN035
     FM160000 VRB03KT P6SM SKC=



000
FTUS41 KILN 151300 AAA
TAFCVG
TAF AMD
KCVG 151341Z 1514/1618 33014G20KT P6SM BKN025
     FM151800 32012G20KT P6SM BKN040
     FM160000 VRB03KT P6SM SKC
     FM161400 13008KT P6SM SKC=



000
FTUS41 KILN 151300 AAA
TAFLUK
TAF AMD
KLUK 151341Z 1514/1612 33012G20KT P6SM BKN028
     FM151800 32012G20KT P6SM BKN040
     FM160000 00000KT P6SM SKC=



000
FTUS41 KILN 151300 AAA
TAFLCK
TAF AMD
KLCK 151341Z 1514/1612 32014G22KT P6SM OVC015
     FM151700 31014G22KT P6SM BKN025
     FM151900 31012G20KT P6SM BKN040
     FM160100 VRB03KT P6SM SKC=



000
FTUS41 KILN 151300 AAA
TAFCMH
TAF AMD
KCMH 151341Z 1514/1612 32014G22KT P6SM OVC015
     FM151700 31014G22KT P6SM BKN025
     FM151900 31012G20KT P6SM BKN040
     FM160100 VRB03KT P6SM SKC=



000
FTUS41 KILN 151100
TAFLCK
TAF
KLCK 151125Z 1512/1612 33014G22KT 4SM -SN OVC012
      TEMPO 1512/1514 2SM -SN OVC008
     FM151400 32014G22KT P6SM OVC015
     FM151700 31014G22KT P6SM BKN025
     FM151900 31012G20KT P6SM BKN040
     FM160100 VRB03KT P6SM SKC=



000
FTUS41 KILN 151100
TAFLUK
TAF
KLUK 151125Z 1512/1612 33012KT P6SM VCSH BKN018 OVC028
     FM151500 33012G20KT P6SM BKN028
     FM151800 32012G20KT P6SM BKN040
     FM160000 00000KT P6SM SKC=



000
FTUS41 KILN 151100
TAFCVG
TAF
KCVG 151125Z 1512/1618 33014G20KT P6SM VCSH BKN015 OVC025
     FM151500 33014G20KT P6SM BKN025
     FM151800 32012G20KT P6SM BKN040
     FM160000 VRB03KT P6SM SKC
     FM161400 13008KT P6SM SKC=



000
FTUS41 KILN 151100
TAFCMH
TAF
KCMH 151125Z 1512/1612 33014G22KT 4SM -SN OVC012
      TEMPO 1512/1514 2SM -SN OVC008
     FM151400 32014G22KT P6SM OVC015
     FM151700 31014G22KT P6SM BKN025
     FM151900 31012G20KT P6SM BKN040
     FM160100 VRB03KT P6SM SKC=



000
FTUS41 KILN 151100
TAFDAY
TAF
KDAY 151125Z 1512/1612 32015G22KT P6SM BKN015 OVC025
     FM151500 32015G22KT P6SM BKN025
     FM151800 32012G20KT P6SM BKN035
     FM160000 VRB03KT P6SM SKC=



000
FTUS41 KILN 151100
TAFILN
TAF
KILN 151125Z 1512/1612 32014G22KT P6SM VCSH BKN015 OVC025
     FM151500 32014G22KT P6SM BKN025
     FM151800 32012G20KT P6SM BKN040
     FM160000 VRB03KT P6SM SKC=



000
FTUS41 KILN 151000 AAB
TAFDAY
TAF AMD
KDAY 151022Z 1510/1606 32014G22KT P6SM OVC015
      TEMPO 1510/1512 5SM -SHSN
     FM151800 32014G22KT P6SM BKN035
     FM152300 32005KT P6SM SKC=



000
FTUS41 KILN 150800 AAA
TAFILN
TAF AMD
KILN 150859Z 1509/1606 33014G22KT 1SM -SN OVC006
     FM151100 34014G22KT 4SM -SN OVC008
     FM151300 33014G22KT P6SM OVC008
     FM151600 33014G20KT P6SM BKN025
     FM151900 32014G20KT P6SM BKN040
     FM152300 32008KT P6SM SCT040
     FM160100 VRB03KT P6SM SKC=



000
FTUS41 KILN 150800 AAA
TAFDAY
TAF AMD
KDAY 150858Z 1509/1606 33012G20KT 4SM -SN OVC006
      TEMPO 1509/1510 1SM -SN
     FM151100 33012G20KT P6SM OVC008
     FM151400 32014G22KT P6SM BKN015
     FM151800 32014G22KT P6SM BKN035
     FM152300 32005KT P6SM SKC=



000
FTUS41 KILN 150800 AAA
TAFCVG
TAF AMD
KCVG 150857Z 1509/1612 34014G22KT 4SM -SN OVC006
      TEMPO 1509/1510 1SM -SN
     FM151100 33012G20KT P6SM OVC012
     FM151500 33014G22KT P6SM BKN025
     FM151800 32012G20KT P6SM BKN040
     FM152300 32010KT P6SM SCT040
     FM160100 VRB03KT P6SM SKC=



000
FTUS41 KILN 150800 AAA
TAFLUK
TAF AMD
KLUK 150857Z 1509/1606 32012G20KT 1SM -SN OVC008
     FM151030 34014G22KT 4SM -SN OVC007
     FM151100 33012G20KT P6SM OVC012
     FM151500 33012G20KT P6SM BKN028
     FM151800 32012G20KT P6SM BKN040
     FM152300 32007KT P6SM SCT040
     FM160100 00000KT P6SM SKC=



000
FTUS41 KILN 150800 AAA
TAFLCK
TAF AMD
KLCK 150827Z 1508/1606 32014G22KT 4SM -RA BR OVC008
     FM151000 32014G24KT 1SM -SN OVC006
     FM151100 33014G22KT 4SM -SN OVC008
     FM151400 32014G22KT P6SM OVC012
     FM151800 31014G22KT P6SM BKN035
     FM160000 32008KT P6SM SCT040
     FM160200 VRB03KT P6SM SKC=



000
FTUS41 KILN 150800 AAA
TAFCMH
TAF AMD
KCMH 150827Z 1508/1606 31014G22KT 4SM -RA BR OVC008
     FM150930 32014G24KT 1SM -SN OVC006
     FM151100 33014G22KT 4SM -SN OVC008
     FM151400 32014G22KT P6SM OVC012
     FM151800 31014G22KT P6SM BKN035
     FM160000 32008KT P6SM SCT040
     FM160200 VRB03KT P6SM SKC=



000
FTUS41 KILN 150500
TAFDAY
TAF
KDAY 150523Z 1506/1606 34014G24KT 1SM -SN OVC006
     FM150900 33014G22KT 4SM -SN OVC006
     FM151100 33014G22KT P6SM OVC008
     FM151400 32014G22KT P6SM BKN015
     FM151800 32014G22KT P6SM BKN035
     FM152300 32005KT P6SM SKC=



000
FTUS41 KILN 150500
TAFILN
TAF
KILN 150523Z 1506/1606 33014G22KT 5SM -RASN BR OVC012
     FM150700 34014G22KT 1SM -SN OVC006
     FM150900 34014G22KT 4SM -SN OVC008
     FM151300 33014G22KT P6SM OVC008
     FM151600 33014G20KT P6SM BKN025
     FM151900 32014G20KT P6SM BKN040
     FM152300 32008KT P6SM SCT040
     FM160100 VRB03KT P6SM SKC=



000
FTUS41 KILN 150500
TAFLUK
TAF
KLUK 150523Z 1506/1606 33014G22KT 4SM -RASN BR OVC012
     FM150700 34014G22KT 1SM -SN OVC009
     FM150900 34014G22KT 4SM -SN OVC007
     FM151100 33012G20KT P6SM OVC012
     FM151500 33012G20KT P6SM BKN028
     FM151800 32012G20KT P6SM BKN040
     FM152300 32007KT P6SM SCT040
     FM160100 00000KT P6SM SKC=



000
FTUS41 KILN 150500
TAFCMH
TAF
KCMH 150523Z 1506/1606 31014G22KT 4SM -RA BR OVC008
     FM150800 32014G24KT 1SM -SN OVC006
     FM151100 33014G22KT 4SM -SN OVC008
     FM151400 32014G22KT P6SM OVC012
     FM151800 31014G22KT P6SM BKN035
     FM160000 32008KT P6SM SCT040
     FM160200 VRB03KT P6SM SKC=



000
FTUS41 KILN 150500
TAFCVG
TAF
KCVG 150523Z 1506/1612 33014G22KT 4SM -SN BR OVC010
     FM150700 34014G22KT 1SM -SN OVC006
     FM150900 34014G22KT 4SM -SN OVC006
     FM151100 33012G20KT P6SM OVC012
     FM151500 33014G22KT P6SM BKN025
     FM151800 32012G20KT P6SM BKN040
     FM152300 32010KT P6SM SCT040
     FM160100 VRB03KT P6SM SKC=



000
FTUS41 KILN 150500
TAFLCK
TAF
KLCK 150523Z 1506/1606 32014G22KT 4SM -RA BR OVC008
     FM150800 32014G24KT 1SM -SN OVC006
     FM151100 33014G22KT 4SM -SN OVC008
     FM151400 32014G22KT P6SM OVC012
     FM151800 31014G22KT P6SM BKN035
     FM160000 32008KT P6SM SCT040
     FM160200 VRB03KT P6SM SKC=



000
FTUS41 KILN 150300 AAA
TAFCMH
TAF AMD
KCMH 150342Z 1504/1524 33016G24KT 4SM -RA BR OVC008
     FM150900 33018G26KT 1SM -SN OVC006
     FM151100 33018G26KT 4SM -SN OVC008
     FM151400 32018G26KT P6SM OVC010
     FM151800 31016G24KT P6SM BKN025
     FM152000 31016G24KT P6SM BKN035=



000
FTUS41 KILN 150100 AAA
TAFCVG
TAF AMD
KCVG 150145Z 1502/1606 33014G22KT 5SM -RA BR OVC008
      TEMPO 1502/1504 OVC010
     FM150700 34018G26KT 1SM -SN OVC006
     FM150900 34018G26KT 4SM -SN OVC008
     FM151100 33016G24KT P6SM OVC012
     FM151500 33016G24KT P6SM BKN025
     FM151800 32016G24KT P6SM BKN040
     FM152300 32010KT P6SM SCT040
     FM160200 33004KT P6SM SKC=



000
FTUS41 KILN 142300 RRA
TAFILN
TAF
KILN 142341Z 1500/1524 32011KT P6SM OVC015
     FM150300 32014KT 5SM -RA BR OVC010
     FM150500 33015G23KT 5SM -RA BR OVC008
     FM150700 34018G26KT 1SM -SN OVC006
     FM150900 34018G26KT 4SM -SN OVC008
     FM151300 33018G26KT P6SM OVC008
     FM151600 33016G24KT P6SM BKN025
     FM151900 32016G24KT P6SM BKN040
     FM152300 32010KT P6SM BKN040=



000
FTUS41 KILN 142300 RRA
TAFLCK
TAF
KLCK 142341Z 1500/1524 23007KT P6SM -SHRA OVC050
     FM150015 32010KT P6SM OVC015
      TEMPO 1501/1502 OVC008
     FM150300 32012KT P6SM -RA OVC012
     FM150600 32016G24KT 4SM -RA BR OVC008
     FM150900 32018G26KT 1SM -SN OVC006
     FM151100 32018G26KT 4SM -SN OVC008
     FM151400 31018G26KT P6SM OVC010
     FM151800 31016G24KT P6SM BKN025
     FM152000 31016G24KT P6SM BKN035=



000
FTUS41 KILN 142300 RRA
TAFCMH
TAF
KCMH 142341Z 1500/1524 32010KT P6SM OVC015
      TEMPO 1500/1501 OVC008
     FM150300 32012KT P6SM -RA OVC012
     FM150600 33016G24KT 4SM -RA BR OVC008
     FM150900 33018G26KT 1SM -SN OVC006
     FM151100 33018G26KT 4SM -SN OVC008
     FM151400 32018G26KT P6SM OVC010
     FM151800 31016G24KT P6SM BKN025
     FM152000 31016G24KT P6SM BKN035=



000
FTUS41 KILN 142300 RRA
TAFCVG
TAF
KCVG 142341Z 1500/1606 32012G20KT P6SM OVC025
     FM150100 32014G22KT 5SM -RA BR OVC010
     FM150300 33015G23KT 5SM -RA BR OVC008
     FM150700 34018G26KT 1SM -SN OVC006
     FM150900 34018G26KT 4SM -SN OVC008
     FM151100 33016G24KT P6SM OVC012
     FM151500 33016G24KT P6SM BKN025
     FM151800 32016G24KT P6SM BKN040
     FM152300 32010KT P6SM SCT040
     FM160200 33004KT P6SM SKC=



000
FTUS41 KILN 142300 RRA
TAFDAY
TAF
KDAY 142341Z 1500/1524 33011KT P6SM OVC015
     FM150200 33014KT P6SM -RA OVC012
     FM150400 34015KT 4SM -RA BR OVC008
     FM150600 34015G23KT 1SM -SN OVC006
     FM150900 33018G26KT 4SM -SN OVC008
     FM151100 33018G26KT P6SM OVC008
     FM151400 32016G24KT P6SM BKN018
     FM151800 32016G24KT P6SM BKN035
     FM152300 31011KT P6SM SCT035=



000
FTUS41 KILN 142300 RRA
TAFLUK
TAF
KLUK 142341Z 1500/1524 31012G20KT P6SM OVC028
     FM150100 32014G22KT 5SM -RA BR OVC012
     FM150300 33015G23KT 5SM -RA BR OVC008
     FM150700 34018G26KT 1SM -SN OVC008
     FM150900 34018G26KT 4SM -SN OVC010
     FM151100 33016G24KT P6SM OVC015
     FM151500 33016G24KT P6SM BKN028
     FM151800 32016G24KT P6SM BKN045
     FM152300 32010KT P6SM SCT045=



000
FTUS41 KILN 142200 AAD
TAFDAY
TAF AMD
KDAY 142217Z 1422/1518 33011KT P6SM OVC008
     FM142300 33011KT P6SM OVC010
     FM150200 34014KT P6SM -RA OVC010
     FM150400 34015KT 4SM -RA BR OVC008
     FM150600 34015G23KT 1SM -SN OVC006
     FM150800 33016G24KT 5SM -SN OVC008
     FM151000 33018G26KT P6SM OVC008
     FM151400 32014G24KT P6SM BKN015
     FM151700 32012G22KT P6SM BKN022=



000
FTUS41 KILN 142000 AAA
TAFLCK
TAF AMD
KLCK 142026Z 1420/1518 22014G22KT P6SM SCT028 OVC050
      TEMPO 1421/1423 -SHRA BKN028
     FM142330 28010KT P6SM BKN018 OVC028
     FM150300 33010G18KT P6SM -RA OVC012
     FM150500 33012G20KT 4SM -RA BR OVC008
     FM150900 33017G27KT 3SM -RASN BR OVC008
     FM151000 32017G27KT 1SM -SN OVC006
     FM151200 32015G25KT P6SM OVC012
     FM151400 31014G24KT P6SM OVC025
     FM151700 31012G22KT P6SM OVC035=



000
FTUS41 KILN 142000 AAA
TAFCMH
TAF AMD
KCMH 142026Z 1420/1518 22014G22KT P6SM SCT025 OVC050
      TEMPO 1421/1423 -SHRA BKN025
     FM142300 28010KT P6SM BKN018 OVC028
     FM150300 33010G18KT P6SM -RA OVC012
     FM150500 33012G20KT 4SM -RA BR OVC008
     FM150900 33017G27KT 3SM -RASN BR OVC008
     FM151000 32017G27KT 1SM -SN OVC006
     FM151200 32015G25KT P6SM OVC012
     FM151400 31014G24KT P6SM OVC025
     FM151700 31012G22KT P6SM OVC035=



000
FTUS41 KILN 142000 AAA
TAFILN
TAF AMD
KILN 142023Z 1420/1518 22016G23KT P6SM VCSH SCT022 OVC050
      TEMPO 1421/1423 BKN022
     FM142330 29010KT P6SM OVC010
     FM150200 32010G18KT P6SM -RA OVC008
     FM150400 33012G20KT 4SM -RA BR OVC008
     FM150700 33018G28KT 3SM -RASN BR OVC008
     FM150800 32017G27KT 1SM -SN OVC006
     FM151100 32015G25KT P6SM OVC008
     FM151400 31014G24KT P6SM BKN025
     FM151700 31012G22KT P6SM BKN035=



000
FTUS41 KILN 142000 AAC
TAFDAY
TAF AMD
KDAY 142020Z 1420/1518 25014KT P6SM VCSH SCT022 OVC040
     FM142030 29011KT P6SM OVC010
     FM150100 32010G18KT P6SM -RA OVC008
     FM150300 34012G20KT 4SM -RA BR OVC008
     FM150500 33018G28KT 3SM -RASN BR OVC008
     FM150700 34017G27KT 1SM -SN OVC006
     FM151000 33015G25KT P6SM OVC018
     FM151400 32014G24KT P6SM SCT025
     FM151700 32012G22KT P6SM BKN025=



000
FTUS41 KILN 142000 AAB
TAFCVG
TAF AMD
KCVG 142014Z 1420/1524 24011KT P6SM VCSH SCT022 OVC045
      TEMPO 1420/1422 BKN022
     FM142200 29010KT P6SM OVC012
     FM150100 32012G20KT 5SM -RA BR OVC008
     FM150500 33018G28KT 5SM -RASN BR OVC008
     FM150700 34018G26KT 2SM -SN OVC006
     FM151100 34015G25KT P6SM OVC025
     FM151500 33015G24KT P6SM SCT025
     FM151700 32015G22KT P6SM BKN040
     FM152200 33015KT P6SM BKN040=



000
FTUS41 KILN 142000 AAB
TAFLUK
TAF AMD
KLUK 142014Z 1420/1518 23011KT P6SM VCSH SCT025 OVC050
      TEMPO 1420/1422 BKN025
     FM142200 28008KT P6SM OVC018
     FM150100 32010G18KT 5SM -RA BR OVC012
     FM150500 34018G28KT 5SM -RASN BR OVC012
     FM150700 33018G26KT 2SM -SN BR OVC009
     FM151100 33015G25KT P6SM OVC025
     FM151500 32015G24KT P6SM SCT025
     FM151700 32015G22KT P6SM BKN040=



000
FTUS41 KILN 141800 AAB
TAFDAY
TAF AMD
KDAY 141850Z 1419/1518 20014G24KT P6SM -SHRA SCT015 OVC025
     FM142100 29010G18KT P6SM VCSH SCT015 OVC025
      TEMPO 1421/1501 OVC015
     FM150100 32010G18KT P6SM -RA OVC008
     FM150300 34012G20KT 4SM -RA BR OVC008
     FM150500 33018G28KT 3SM -RASN BR OVC008
     FM150700 34017G27KT 1SM -SN OVC006
     FM151000 33015G25KT P6SM OVC018
     FM151400 32014G24KT P6SM SCT025
     FM151700 32012G22KT P6SM BKN025=



000
FTUS41 KILN 141800 AAA
TAFILN
TAF AMD
KILN 141847Z 1419/1518 22018G27KT P6SM -SHRA OVC025
      TEMPO 1419/1422 3SM -SHRA OVC018
     FM142200 28010G18KT P6SM VCSH OVC022
     FM150200 32010G18KT P6SM -RA OVC008
     FM150400 33012G20KT 4SM -RA BR OVC008
     FM150700 33018G28KT 3SM -RASN BR OVC008
     FM150800 32017G27KT 1SM -SN OVC006
     FM151100 32015G25KT P6SM OVC008
     FM151400 31014G24KT P6SM BKN025
     FM151700 31012G22KT P6SM BKN035=



000
FTUS41 KILN 141800 AAA
TAFDAY
TAF AMD
KDAY 141844Z 1419/1518 20014G24KT P6SM -SHRA SCT015 OVC025
     FM142100 29010G18KT P6SM VCSH SCT015 OVC025
     FM150100 32010G18KT P6SM -RA OVC008
     FM150300 34012G20KT 4SM -RA BR OVC008
     FM150500 33018G28KT 3SM -RASN BR OVC008
     FM150700 34017G27KT 1SM -SN OVC006
     FM151000 33015G25KT P6SM OVC018
     FM151400 32014G24KT P6SM SCT025
     FM151700 32012G22KT P6SM BKN025=



000
FTUS41 KILN 141800 AAA
TAFLUK
TAF AMD
KLUK 141843Z 1419/1518 22014G24KT P6SM -SHRA OVC035
      TEMPO 1419/1422 SCT015 OVC025
     FM142200 28010G18KT P6SM VCSH OVC018
     FM150100 32010G18KT 5SM -RA BR OVC012
     FM150500 34018G28KT 5SM -RASN BR OVC012
     FM150700 33018G26KT 2SM -SN BR OVC009
     FM151100 33015G25KT P6SM OVC025
     FM151500 32015G24KT P6SM SCT025
     FM151700 32015G22KT P6SM BKN040=



000
FTUS41 KILN 141800 AAA
TAFCVG
TAF AMD
KCVG 141817Z 1418/1524 23012G20KT P6SM -SHRA OVC035
      TEMPO 1419/1421 3SM -SHRA OVC025
     FM142100 29010G18KT P6SM VCSH OVC015
     FM150100 32012G20KT 5SM -RA BR OVC008
     FM150500 33018G28KT 5SM -RASN BR OVC008
     FM150700 34018G26KT 2SM -SN OVC006
     FM151100 34015G25KT P6SM OVC025
     FM151500 33015G24KT P6SM SCT025
     FM151700 32015G22KT P6SM BKN040
     FM152200 33015KT P6SM BKN040=



000
FTUS41 KILN 141700 RRA
TAFDAY
TAF
KDAY 141741Z 1418/1518 23018G27KT 3SM -SHRA OVC025
     FM142100 29010G18KT P6SM VCSH OVC015
     FM150100 32010G18KT P6SM -RA OVC008
     FM150300 34012G20KT 4SM -RA BR OVC008
     FM150500 33018G28KT 3SM -RASN BR OVC008
     FM150700 34017G27KT 1SM -SN OVC006
     FM151000 33015G25KT P6SM OVC018
     FM151400 32014G24KT P6SM SCT025
     FM151700 32012G22KT P6SM BKN025=



000
FTUS41 KILN 141700 RRA
TAFLUK
TAF
KLUK 141741Z 1418/1518 23015G25KT 3SM -SHRA SCT015 OVC025
      TEMPO 1418/1421 OVC018
     FM142200 28010G18KT P6SM VCSH OVC018
     FM150100 32010G18KT 5SM -RA BR OVC012
     FM150500 34018G28KT 5SM -RASN BR OVC012
     FM150700 33018G26KT 2SM -SN OVC009
     FM151100 33015G25KT P6SM OVC025
     FM151500 32015G24KT P6SM SCT025
     FM151700 32015G22KT P6SM BKN040=



000
FTUS41 KILN 141700 RRA
TAFLCK
TAF
KLCK 141741Z 1418/1518 22018G28KT 5SM -SHRA OVC015
      TEMPO 1418/1422 OVC025
     FM142200 25010G18KT P6SM VCSH OVC022
     FM150300 33010G18KT P6SM -RA OVC012
     FM150500 33012G20KT 4SM -RA BR OVC008
     FM150900 33017G27KT 3SM -RASN BR OVC008
     FM151000 32017G27KT 1SM -SN OVC006
     FM151200 32015G25KT P6SM OVC012
     FM151400 31014G24KT P6SM OVC025
     FM151700 31012G22KT P6SM OVC035=



000
FTUS41 KILN 141700 RRA
TAFCMH
TAF
KCMH 141741Z 1418/1518 22018G28KT 5SM -SHRA OVC015
      TEMPO 1418/1422 OVC025
     FM142200 25010G18KT P6SM VCSH OVC022
     FM150300 33010G18KT P6SM -RA OVC012
     FM150500 33012G20KT 4SM -RA BR OVC008
     FM150900 33017G27KT 3SM -RASN BR OVC008
     FM151000 32017G27KT 1SM -SN OVC006
     FM151200 32015G25KT P6SM OVC012
     FM151400 31014G24KT P6SM OVC025
     FM151700 31012G22KT P6SM OVC035=



000
FTUS41 KILN 141700 RRA
TAFILN
TAF
KILN 141741Z 1418/1518 22018G27KT P6SM -SHRA OVC015
      TEMPO 1418/1422 3SM -SHRA OVC025
     FM142200 28010G18KT P6SM VCSH OVC022
     FM150200 32010G18KT P6SM -RA OVC008
     FM150400 33012G20KT 4SM -RA BR OVC008
     FM150700 33018G28KT 3SM -RASN BR OVC008
     FM150800 32017G27KT 1SM -SN OVC006
     FM151100 32015G25KT P6SM OVC008
     FM151400 31014G24KT P6SM BKN025
     FM151700 31012G22KT P6SM BKN035=



000
FTUS41 KILN 141700 RRA
TAFCVG
TAF
KCVG 141741Z 1418/1524 23015G25KT 3SM -SHRA OVC025
      TEMPO 1418/1421 2SM -SHRA SCT009 OVC015
     FM142100 29010G18KT P6SM VCSH OVC015
     FM150100 32012G20KT 5SM -RA BR OVC008
     FM150500 33018G28KT 5SM -RASN BR OVC008
     FM150700 34018G26KT 2SM -SN OVC006
     FM151100 34015G25KT P6SM OVC025
     FM151500 33015G24KT P6SM SCT025
     FM151700 32015G22KT P6SM BKN040
     FM152200 33015KT P6SM BKN040=



000
FTUS41 KILN 141600 AAB
TAFLCK
TAF AMD
KLCK 141643Z 1417/1512 22018G27KT P6SM -SHRA OVC025
     FM150000 29014G20KT P6SM -RA SCT010 OVC022
     FM150600 33016G28KT 5SM -RA BR OVC008
     FM151000 34018G25KT 3SM -SN OVC006=



000
FTUS41 KILN 141600 AAB
TAFCMH
TAF AMD
KCMH 141642Z 1417/1512 23018G27KT P6SM -SHRA SCT015 OVC025
     FM150000 29014G20KT P6SM -RA OVC015
     FM150600 33016G28KT 5SM -RA BR OVC008
     FM151000 34018G25KT 3SM -SN OVC006=



000
FTUS41 KILN 141600 AAC
TAFDAY
TAF AMD
KDAY 141641Z 1417/1512 21018G30KT P6SM -SHRA SCT025 OVC040
     FM141700 23018G26KT P6SM -SHRA BKN025 OVC040
     FM142300 32014G22KT P6SM -RA OVC015
     FM150200 33016G28KT 5SM -RA BR OVC008
     FM150700 34018G25KT 3SM -SN OVC006=



000
FTUS41 KILN 141600 AAA
TAFLUK
TAF AMD
KLUK 141639Z 1417/1512 22020G30KT 5SM -SHRA BR SCT015 OVC025
     FM141800 23015G25KT P6SM -SHRA OVC025
     FM142200 29014G25KT P6SM -RA OVC018
     FM150200 33018G28KT 5SM -RA BR OVC010
     FM150800 32018G26KT 4SM -SN BKN009=



000
FTUS41 KILN 141600 AAB
TAFCVG
TAF AMD
KCVG 141637Z 1417/1518 21016G26KT 3SM -SHRA BR SCT008 OVC015
      TEMPO 1417/1418 OVC025
     FM141800 23015G25KT P6SM -SHRA BKN025 OVC040
     FM142200 29014G25KT P6SM -RA OVC015
     FM150200 33018G28KT 5SM -RA BR OVC008
     FM150800 34018G26KT 4SM -SN BKN006
     FM151200 34016G25KT P6SM SCT020=



000
FTUS41 KILN 141600 AAA
TAFILN
TAF AMD
KILN 141635Z 1417/1512 22020G30KT 3SM -SHRA BR OVC015
      TEMPO 1417/1418 OVC025
     FM141800 22018G26KT P6SM -SHRA OVC025
     FM142300 30014G22KT P6SM -RA OVC015
     FM150400 33016G28KT 5SM -RA BR OVC008
     FM150900 34018G25KT 4SM -SN OVC006=



000
FTUS41 KILN 141400 AAA
TAFCVG
TAF AMD
KCVG 141456Z 1415/1518 21018G30KT P6SM VCSH OVC050
     FM141800 23015G25KT P6SM VCTS BKN025CB OVC040
     FM142200 29014G25KT P6SM -RA SCT010 OVC025
     FM150200 33018G28KT 5SM -RA BR OVC008
     FM150800 34018G26KT 4SM -SN BKN006
     FM151200 34016G25KT P6SM SCT020=



000
FTUS41 KILN 141400 AAB
TAFDAY
TAF AMD
KDAY 141429Z 1414/1512 21018G32KT P6SM -SHRA BKN025 OVC050
     FM141700 23018G26KT P6SM VCTS BKN025CB OVC040
     FM142300 32014G22KT P6SM -RA SCT010 OVC022
     FM150200 33016G28KT 5SM -RA BR OVC008
     FM150700 34018G25KT 3SM -SN OVC006=



000
FTUS41 KILN 141300 AAA
TAFDAY
TAF AMD
KDAY 141303Z 1413/1512 21018G27KT P6SM -SHRA SCT035 OVC050
     FM141600 23018G26KT P6SM VCTS SCT022 OVC040CB
     FM142300 32014G22KT P6SM -RA SCT010 OVC022
     FM150200 33016G28KT 5SM -RA BR OVC008
     FM150700 34018G25KT 3SM -SN OVC006=



000
FTUS41 KILN 141200 AAA
TAFILN
TAF AMD
KILN 141257Z 1413/1512 22018G27KT P6SM -SHRA OVC050
     FM141600 22018G26KT P6SM VCTS SCT022 OVC040CB
     FM150000 30014G22KT P6SM -RA SCT010 OVC022
     FM150400 33016G28KT 5SM -RA BR OVC008
     FM150900 34018G25KT 4SM -SN OVC006=



000
FTUS41 KILN 141200 AAA
TAFLCK
TAF AMD
KLCK 141256Z 1413/1512 22018G27KT P6SM -SHRA OVC050
     FM141600 22018G26KT P6SM VCTS SCT022 OVC040CB
     FM150000 29014G20KT P6SM -RA SCT010 OVC022
     FM150600 33016G28KT 5SM -RA BR OVC008
     FM151000 34018G25KT 3SM -SN OVC006=



000
FTUS41 KILN 141200 AAA
TAFCMH
TAF AMD
KCMH 141255Z 1413/1512 23018G27KT P6SM -SHRA OVC050
     FM141600 22018G26KT P6SM VCTS SCT022 OVC040CB
     FM150000 29014G20KT P6SM -RA SCT010 OVC022
     FM150600 33016G28KT 5SM -RA BR OVC008
     FM151000 34018G25KT 3SM -SN OVC006=



000
FTUS41 KILN 141100
TAFCVG
TAF
KCVG 141128Z 1412/1518 20015G25KT P6SM -SHRA OVC050
     FM141600 23015G25KT P6SM VCTS SCT025 OVC040CB
     FM142200 29014G25KT P6SM -RA SCT010 OVC025
     FM150200 33018G28KT 5SM -RA BR OVC008
     FM150800 34018G26KT 4SM -SN BKN006
     FM151200 34016G25KT P6SM SCT020=



000
FTUS41 KILN 141100
TAFILN
TAF
KILN 141128Z 1412/1512 20018G35KT P6SM -SHRA OVC060
     FM141500 21018G30KT P6SM -SHRA OVC050
     FM141600 22018G26KT P6SM VCTS SCT022 OVC040CB
     FM150000 30014G22KT P6SM -RA SCT010 OVC022
     FM150400 33016G28KT 5SM -RA BR OVC008
     FM150900 34018G25KT 4SM -SN OVC006=



000
FTUS41 KILN 141100
TAFCMH
TAF
KCMH 141128Z 1412/1512 20018G35KT P6SM -SHRA OVC060
     FM141500 21018G30KT P6SM -SHRA OVC050
     FM141600 22018G26KT P6SM VCTS SCT022 OVC040CB
     FM150000 29014G20KT P6SM -RA SCT010 OVC022
     FM150600 33016G28KT 5SM -RA BR OVC008
     FM151000 34018G25KT 3SM -SN OVC006=



000
FTUS41 KILN 141100
TAFDAY
TAF
KDAY 141128Z 1412/1512 20018G35KT P6SM -SHRA OVC060
     FM141500 22018G30KT P6SM -SHRA OVC050
     FM141600 23018G26KT P6SM VCTS SCT022 OVC040CB
     FM142300 32014G22KT P6SM -RA SCT010 OVC022
     FM150200 33016G28KT 5SM -RA BR OVC008
     FM150700 34018G25KT 3SM -SN OVC006=



000
FTUS41 KILN 141100
TAFLCK
TAF
KLCK 141128Z 1412/1512 20018G35KT P6SM -SHRA OVC060
     FM141500 21018G30KT P6SM -SHRA OVC050
     FM141600 22018G26KT P6SM VCTS SCT022 OVC040CB
     FM150000 29014G20KT P6SM -RA SCT010 OVC022
     FM150600 33016G28KT 5SM -RA BR OVC008
     FM151000 34018G25KT 3SM -SN OVC006=



000
FTUS41 KILN 141100
TAFLUK
TAF
KLUK 141128Z 1412/1512 20015G25KT P6SM -SHRA OVC050
     FM141600 23015G25KT P6SM VCTS SCT025 OVC040CB
     FM142200 29014G25KT P6SM -RA SCT010 OVC025
     FM150200 33018G28KT 5SM -RA BR OVC010
     FM150800 32018G26KT 4SM -SN BKN009=



000
FTUS41 KILN 141000 AAA
TAFILN
TAF AMD
KILN 141012Z 1410/1506 19020G35KT P6SM -SHRA BKN150
     FM141200 19018G25KT P6SM VCSH BKN050 OVC120
     FM141400 21022G30KT P6SM -SHRA OVC050
     FM141700 22017G25KT P6SM -SHRA VCTS SCT022 OVC040CB
     FM142300 28014G22KT P6SM -RA SCT010 OVC022
     FM150300 32016G25KT 5SM -RA BR OVC008=



000
FTUS41 KILN 140900 AAC
TAFCVG
TAF AMD
KCVG 140955Z 1410/1512 20015G25KT P6SM -SHRA OVC050
     FM141700 24015G23KT P6SM VCTS SCT025 OVC040CB
     FM142200 29014G25KT P6SM -RA SCT010 OVC025
     FM150200 33016G25KT 5SM -RA BR OVC008
     FM151000 34016KT P6SM BKN020=



000
FTUS41 KILN 140900 AAA
TAFLCK
TAF AMD
KLCK 140955Z 1410/1506 19017G24KT P6SM VCSH BKN050 OVC120
     FM141400 20022G30KT P6SM -SHRA OVC050
     FM141900 23016G24KT P6SM -SHRA VCTS SCT022 OVC040CB
     FM142300 28012KT P6SM -RA SCT010 OVC022
     FM150400 32016G25KT 5SM -RA BR OVC008=



000
FTUS41 KILN 140900 AAC
TAFLUK
TAF AMD
KLUK 140955Z 1410/1506 21015G25KT P6SM -SHRA BKN050 OVC120
     FM141100 21015G25KT P6SM -SHRA OVC050
     FM141700 23014G22KT P6SM VCTS SCT025 OVC045CB
     FM142200 28012G20KT P6SM -RA SCT010 OVC028
     FM150200 33016G25KT 5SM -RA BR OVC008=



000
FTUS41 KILN 140900 AAA
TAFCMH
TAF AMD
KCMH 140954Z 1410/1506 19017G24KT P6SM VCSH BKN050 OVC120
     FM141400 20022G30KT P6SM -SHRA OVC050
     FM141900 23016G24KT P6SM -SHRA VCTS SCT022 OVC040CB
     FM142300 28012KT P6SM -RA SCT010 OVC022
     FM150400 32016G25KT 5SM -RA BR OVC008=



000
FTUS41 KILN 140900 AAB
TAFDAY
TAF AMD
KDAY 140911Z 1409/1506 19020G30KT P6SM VCSH BKN050 OVC120
      TEMPO 1409/1411 22026G45KT
     FM141100 20018G28KT P6SM -SHRA OVC050
     FM141600 23018G26KT P6SM -SHRA VCTS SCT022 OVC040CB
     FM142100 30014G22KT P6SM -RA SCT010 OVC022
     FM150200 33016G25KT 5SM -RA BR OVC008=



000
FTUS41 KILN 140800 AAB
TAFCVG
TAF AMD
KCVG 140857Z 1409/1512 20020G28KT P6SM -SHRA BKN050 OVC120
      TEMPO 1409/1410 20024G36KT 4SM -RA
     FM141100 20015G25KT P6SM -SHRA OVC050
     FM141700 24015G23KT P6SM VCTS SCT025 OVC040CB
     FM142200 29014G25KT P6SM -RA SCT010 OVC025
     FM150200 33016G25KT 5SM -RA BR OVC008
     FM151000 34016KT P6SM BKN020=



000
FTUS41 KILN 140800 AAA
TAFDAY
TAF AMD
KDAY 140854Z 1409/1506 19022G35KT P6SM VCSH BKN050 OVC120
     FM141100 20018G28KT P6SM -SHRA OVC050
     FM141600 23018G26KT P6SM -SHRA VCTS SCT022 OVC040CB
     FM142100 30014G22KT P6SM -RA SCT010 OVC022
     FM150200 33016G25KT 5SM -RA BR OVC008=



000
FTUS41 KILN 140800 AAA
TAFCVG
TAF AMD
KCVG 140825Z 1408/1512 18012KT P6SM OVC150
     FM140900 18022G35KT P6SM -SHRA BKN050 OVC120
     FM141100 20015G25KT P6SM -SHRA OVC050
     FM141700 24015G23KT P6SM VCTS SCT025 OVC040CB
     FM142200 29014G25KT P6SM -RA SCT010 OVC025
     FM150200 33016G25KT 5SM -RA BR OVC008
     FM151000 34016KT P6SM BKN020=



000
FTUS41 KILN 140800 AAB
TAFLUK
TAF AMD
KLUK 140825Z 1408/1506 20013G20KT P6SM FEW060 BKN200
     FM140900 21020G35KT P6SM -SHRA BKN050 OVC120
     FM141100 21015G25KT P6SM -SHRA OVC050
     FM141700 23014G22KT P6SM VCTS SCT025 OVC045CB
     FM142200 28012G20KT P6SM -RA SCT010 OVC028
     FM150200 33016G25KT 5SM -RA BR OVC008=



000
FTUS41 KILN 140600 AAA
TAFLUK
TAF AMD
KLUK 140606Z 1406/1506 20013G20KT P6SM FEW060 BKN200
     FM140900 21014G21KT P6SM -SHRA BKN050 OVC120
     FM141300 21018G28KT P6SM -SHRA OVC050
     FM141700 23014G22KT P6SM VCTS SCT025 OVC045CB
     FM142200 28012G20KT P6SM -RA SCT010 OVC028
     FM150200 33016G25KT 5SM -RA BR OVC008=



000
FTUS41 KILN 140500
TAFLCK
TAF
KLCK 140525Z 1406/1506 18012KT P6SM BKN200
     FM141100 19017G24KT P6SM VCSH BKN050 OVC120
     FM141400 20022G30KT P6SM -SHRA OVC050
     FM141900 23016G24KT P6SM -SHRA VCTS SCT022 OVC040CB
     FM142300 28012KT P6SM -RA SCT010 OVC022
     FM150400 32016G25KT 5SM -RA BR OVC008=



000
FTUS41 KILN 140500
TAFLUK
TAF
KLUK 140525Z 1406/1506 20011KT P6SM FEW060 BKN200
     FM140900 21014G21KT P6SM -SHRA BKN050 OVC120
     FM141300 21018G28KT P6SM -SHRA OVC050
     FM141700 23014G22KT P6SM VCTS SCT025 OVC045CB
     FM142200 28012G20KT P6SM -RA SCT010 OVC028
     FM150200 33016G25KT 5SM -RA BR OVC008=



000
FTUS41 KILN 140500
TAFCVG
TAF
KCVG 140525Z 1406/1512 18012KT P6SM OVC150
     FM140900 18015G22KT P6SM -SHRA BKN050 OVC120
     FM141300 20018G28KT P6SM -SHRA OVC050
     FM141700 24015G23KT P6SM VCTS SCT025 OVC040CB
     FM142200 29014G22KT P6SM -RA SCT010 OVC025
     FM150200 33016G25KT 5SM -RA BR OVC008
     FM151000 34016KT P6SM BKN020=



000
FTUS41 KILN 140500
TAFDAY
TAF
KDAY 140525Z 1406/1506 19014G22KT P6SM BKN150
     FM140900 19018G25KT P6SM VCSH BKN050 OVC120
     FM141400 20023G35KT P6SM -SHRA OVC050
     FM141600 23018G26KT P6SM -SHRA VCTS SCT022 OVC040CB
     FM142100 30014G22KT P6SM -RA SCT010 OVC022
     FM150200 33016G25KT 5SM -RA BR OVC008=



000
FTUS41 KILN 140500
TAFILN
TAF
KILN 140525Z 1406/1506 19014G22KT P6SM BKN150
     FM141000 19018G25KT P6SM VCSH BKN050 OVC120
     FM141400 21022G34KT P6SM -SHRA OVC050
     FM141700 22017G25KT P6SM -SHRA VCTS SCT022 OVC040CB
     FM142300 28014G22KT P6SM -RA SCT010 OVC022
     FM150300 32016G25KT 5SM -RA BR OVC008=



000
FTUS41 KILN 140500
TAFCMH
TAF
KCMH 140525Z 1406/1506 18012KT P6SM BKN200
     FM141100 19017G24KT P6SM VCSH BKN050 OVC120
     FM141400 20022G30KT P6SM -SHRA OVC050
     FM141900 23016G24KT P6SM -SHRA VCTS SCT022 OVC040CB
     FM142300 28012KT P6SM -RA SCT010 OVC022
     FM150400 32016G25KT 5SM -RA BR OVC008=



000
FTUS41 KILN 132300
TAFCMH
TAF
KCMH 132340Z 1400/1424 18012KT P6SM BKN200
     FM141100 19017G24KT P6SM VCSH BKN050 OVC120
     FM141500 20022G25KT P6SM -SHRA OVC050
     FM141900 23016G24KT P6SM -SHRA VCTS SCT022 OVC040CB=



000
FTUS41 KILN 132300
TAFILN
TAF
KILN 132340Z 1400/1424 19014G22KT P6SM BKN200
     FM141000 19018G25KT P6SM VCSH BKN050 OVC120
     FM141400 21022G34KT P6SM -SHRA OVC050
     FM141800 22017G25KT P6SM -SHRA VCTS SCT022 OVC040CB
     FM142300 30014G22KT P6SM -RA SCT010 OVC022=



000
FTUS41 KILN 132300
TAFLUK
TAF
KLUK 132340Z 1400/1424 20011KT P6SM FEW060 BKN200
     FM140900 21014G21KT P6SM VCSH BKN050 OVC120
     FM141300 21018G30KT P6SM -SHRA OVC050
     FM141700 23014G22KT P6SM -SHRA VCTS SCT025 OVC045CB
     FM142200 28012G20KT P6SM -RA SCT010 OVC028=



000
FTUS41 KILN 132300
TAFDAY
TAF
KDAY 132340Z 1400/1424 19014G22KT P6SM BKN200
     FM140800 19018G25KT P6SM VCSH BKN050 OVC120
     FM141300 20023G35KT P6SM -SHRA OVC050
     FM141600 23018G26KT P6SM -SHRA VCTS SCT022 OVC040CB
     FM142100 30014G22KT P6SM -RA SCT010 OVC022=



000
FTUS41 KILN 132300
TAFLCK
TAF
KLCK 132340Z 1400/1424 19012KT P6SM BKN200
     FM141100 19017G24KT P6SM VCSH BKN050 OVC120
     FM141500 21022G25KT P6SM -SHRA OVC050
     FM141900 23016G24KT P6SM -SHRA VCTS SCT022 OVC040CB=



000
FTUS41 KILN 132300
TAFCVG
TAF
KCVG 132340Z 1400/1506 18012KT P6SM FEW060 BKN200
     FM140900 18015G22KT P6SM VCSH BKN050 OVC120
     FM141300 20018G30KT P6SM -SHRA OVC050
     FM141700 24015G23KT P6SM -SHRA VCTS SCT025 OVC040CB
     FM142200 29014G22KT P6SM -RA SCT010 OVC025
     FM150200 33016KT P6SM -RA OVC008=



000
FTUS41 KILN 132000 AAA
TAFCVG
TAF AMD
KCVG 132056Z 1321/1424 18012G20KT P6SM FEW060 BKN150
     FM140900 19015G22KT P6SM VCSH BKN050 OVC150
     FM141200 18018G30KT P6SM -SHRA OVC060
     FM141400 20020G35KT P6SM -SHRA OVC060
     FM141900 24015G28KT P6SM -SHRA VCTS OVC025CB
     FM142200 27014G24KT P6SM -SHRA OVC025=



    US Dept of Commerce
    National Oceanic and Atmospheric Administration
    National Weather Service
    1325 East West Highway
    Silver Spring, MD 20910
    Page Author: NWS Internet Services Team
Disclaimer
Information Quality
Credits
Glossary
Privacy Policy
Freedom of Information Act (FOIA)
About Us
Career Opportunities